Weather observations for the past three days for
Ithaca Tompkins International Airport
Metric (Imperial)
Date Time (edt) Wind (kph) Vis. (km) Weather Sky Cond. Temperature (ºC) Relative Humidity Wind Chill (°C) Heat Index (°C) Pressure Precipitation (cm)
Air Dwpt 6 hour altimeter (cm) sea level (mb) 1 hr 3 hr 6 hr
Max. Min.
04 07:56 S 13 G 28 16.09 Mostly Cloudy BKN090 10 0.6 10 5 52% 8 75.74 1009.8
04 05:56 S 13 16.09 Fair CLR 8.9 -0.6 52% 7 75.72 1009.7
04 04:56 S 9 16.09 Mostly Cloudy BKN140 7.8 -0.6 56% 6 75.72 1009.9
04 03:56 SW 7 16.09 Overcast BKN130 OVC150 7.2 0 61% 6 75.74 1009.9
04 02:56 Vrbl 7 16.09 Overcast OVC120 6.1 0 65% 5 75.74 1010.1
04 01:56 S 9 16.09 A Few Clouds FEW090 8.3 -1.1 12.2 7.2 52% 7 75.77 1010.5
04 00:56 S 11 16.09 Mostly Cloudy BKN090 8.3 -0.6 54% 7 75.77 1010.5
03 23:56 SW 6 16.09 Overcast OVC080 8.9 2.2 63% 75.77 1010.6
03 22:56 Calm 16.09 Overcast OVC075 9.4 1.1 56% 75.79 1010.9
03 21:56 W 9 16.09 Overcast OVC070 11.7 -1.1 41% 75.82 1011.0
03 20:56 W 19 G 41 16.09 Overcast OVC070 12.2 -1.7 38% 75.79 1011.1
03 19:56 W 15 G 31 16.09 Mostly Cloudy BKN075 11.7 -1.1 12.8 11.1 41% 75.77 1010.7
03 18:56 W 7 16.09 Mostly Cloudy BKN080 12.2 -1.1 40% 75.72 1010.1
03 17:56 W 11 16.09 Mostly Cloudy BKN085 12.2 -1.7 38% 75.74 1010.3
03 16:56 NW 20 16.09 Mostly Cloudy BKN085 12.2 -1.7 38% 75.77 1010.5
03 15:56 NW 20 G 41 16.09 Overcast SCT070 OVC095 12.2 -1.7 38% 75.79 1011.0
03 14:56 NW 19 G 37 16.09 Overcast OVC080 11.7 -3.3 35% 75.84 1011.5
03 13:56 W 15 16.09 Mostly Cloudy BKN055 BKN080 11.1 -2.8 11.1 3.9 38% 75.87 1011.9
03 12:56 N 17 G 33 16.09 Partly Cloudy SCT060 10 -2.8 41% 8 75.92 1012.6
03 11:56 NW 19 G 37 16.09 Fair CLR 8.9 -3.3 42% 6 75.97 1013.6
03 10:56 NW 20 G 35 16.09 Fair CLR 7.8 -3.9 44% 5 76.02 1014.2
03 09:56 NW 30 G 41 16.09 Fair CLR 6.7 -3.9 47% 3 76.02 1014.4
03 08:56 NW 20 G 35 16.09 Fair CLR 5.6 -4.4 49% 2 76.02 1014.4
03 07:56 NW 13 16.09 Fair CLR 3.9 -1.7 3.9 0.6 67% 1 76.02 1014.3
03 06:56 Calm 16.09 Partly Cloudy SCT055 1.7 -1.1 82% 76 1013.9
03 05:56 NW 6 16.09 Partly Cloudy SCT055 1.7 -1.1 82% 75.97 1013.6
03 04:56 NW 9 16.09 Overcast BKN050 OVC080 2.8 -0.6 79% 1 75.97 1013.5
03 03:56 NW 9 16.09 Overcast OVC080 2.8 -0.6 79% 1 75.97 1013.5
03 02:56 NW 9 16.09 Overcast OVC080 2.8 -0.6 79% 1 75.97 1013.5
03 01:56 NW 7 16.09 Overcast OVC080 2.8 -0.6 5 2.8 79% 1 76 1013.7
03 00:56 NW 7 16.09 Overcast OVC075 3.3 -0.6 76% 2 76.02 1014.4
02 22:56 NW 9 16.09 Overcast OVC080 3.3 -0.6 76% 1 76.05 1014.7
02 21:56 NW 11 16.09 Overcast OVC080 3.3 -0.6 76% 1 76.07 1015.0
02 20:56 NW 7 16.09 Overcast OVC080 4.4 -0.6 70% 3 76.05 1014.8
02 19:56 NW 11 16.09 Overcast OVC080 5 -1.1 7.8 5 65% 3 76.02 1014.5
02 18:56 NW 15 16.09 Overcast OVC080 5.6 -1.1 62% 3 76 1013.9
02 17:56 NW 17 16.09 Overcast OVC070 6.7 -3.3 49% 4 75.97 1013.8
02 16:56 NW 15 16.09 Overcast OVC070 7.2 -2.8 49% 5 75.95 1013.3
02 15:56 NW 17 16.09 Mostly Cloudy BKN070 BKN080 7.8 -3.3 46% 5 75.97 1013.5
02 14:56 W 13 16.09 Overcast OVC070 7.8 -2.8 47% 6 76 1014.0
02 13:56 W 13 16.09 Overcast OVC055 7.2 -2.8 7.8 2.2 49% 5 76.02 1014.0
02 12:56 NW 17 16.09 Mostly Cloudy BKN060 6.7 -3.3 49% 4 76.02 1014.2
02 11:56 W 15 G 28 16.09 Mostly Cloudy BKN047 6.7 -4.4 45% 4 76.05 1014.7
02 10:56 NW 13 16.09 Mostly Cloudy BKN030 6.1 -1.7 58% 4 76.05 1014.5
02 09:56 NW 11 G 28 16.09 Partly Cloudy SCT022 5 0 70% 3 76.07 1014.9
02 08:56 NW 15 16.09 Partly Cloudy SCT016 3.9 1.1 82% 1 76.1 1015.1
02 07:56 NW 7 16.09 Mostly Cloudy BKN016 2.2 0 3.3 1.7 86% 0 76.1 1015.4
02 06:56 NW 11 16.09 A Few Clouds FEW020 2.2 0.6 89% -1 76.05 1014.6
02 05:56 NW 11 9.66 Fog/Mist BKN026 2.2 2.2 100% -1 76.02 1014.0
02 04:56 W 6 12.87 Overcast BKN022 OVC095 2.8 2.8 100% 75.97 1013.4
02 03:56 Calm 16.09 Overcast FEW020 OVC080 3.3 3.3 100% 75.95 1013.0
02 02:56 Calm 8.05 Fog/Mist SCT003 BKN007 BKN013 OVC040 3.3 3.3 100% 75.95 1013.2
02 01:56 Calm 1.61 Fog/Mist VV003 3.3 3.3 6.7 3.3 100% 0 0.0
02 00:56 NW 11 0.40 Fog VV002 3.3 3.3 100% 1 75.95 1013.0
01 23:56 W 11 0.40 Light Rain Fog VV002 3.3 3.3 100% 1 75.95 1013.0 0.03
01 22:56 NW 13 0.40 Light Rain Fog VV002 4.4 3.9 97% 2 75.92 1012.9
01 21:56 W 19 2.41 Light Rain Fog/Mist SCT003 BKN008 BKN015 OVC021 5 5 100% 2 0 0.0
01 19:56 S 6 12.87 Light Rain OVC027 6.7 5.6 10.6 6.7 93% 75.84 1011.9 0.08 0.2
01 18:56 Calm 12.87 Rain OVC040 6.7 4.4 85% 75.84 1012.0 0.05
01 17:56 NW 9 12.87 Light Rain OVC040 7.8 3.9 77% 6 75.84 1011.8
01 16:56 W 11 16.09 Light Rain OVC041 8.9 2.2 63% 7 75.82 1011.6
01 15:56 Calm 16.09 Overcast SCT045 OVC080 9.4 1.7 59% 75.82 1011.6
01 14:56 Vrbl 11 16.09 Partly Cloudy SCT050 10 1.1 54% 9 75.87 1012.1
01 13:56 Calm 16.09 Overcast OVC050 10 -0.6 10.6 5 48% 75.87 1012.3
01 12:56 NW 11 16.09 Mostly Cloudy BKN040 10 -1.1 46% 9 75.9 1012.2
01 11:56 Vrbl 6 16.09 Overcast BKN040 OVC100 9.4 0.6 55% 75.95 1013.1
01 10:56 W 7 16.09 Mostly Cloudy BKN035 BKN110 8.9 0.6 56% 8 75.95 1013.1
01 09:56 Calm 16.09 Mostly Cloudy BKN035 7.2 1.7 68% 75.97 1013.6
01 08:56 Vrbl 9 16.09 Fair CLR 6.1 1.7 74% 4 76.02 1014.1
Date Time (edt) Wind (kph) Vis. (km) Weather Sky Cond. Air Dwpt Max. Min. Relative Humidity Wind Chill (°C) Heat Index (°C) altimeter (cm) sea level (mb) 1 hr 3 hr 6 hr
6 hour
Temperature (ºC) Pressure Precipitation (cm)